Terminal Aerodrome Forecast
Issued by NWS

Current Version | Previous Version | Text Only | Print | Product List | Glossary Off
Versions: 1 2 3 4 5 6 7 8 9 10 11 12 13 14 15 16 17 18 19 20 21 22 23 24 25 26 27 28 29

000
FTUS41 KILN 220300 AAB
TAFLCK
TAF AMD
KLCK 220358Z 2204/2224 33012G20KT P6SM SCT025 OVC035
      TEMPO 2204/2208 BKN025
     FM220800 30012KT P6SM BKN035
     FM221300 34009KT P6SM SCT035
     FM221800 36007KT P6SM SKC=

USA.gov is the U.S. government's official web portal to all federal, state and local government web resources and services.